KCLK

Clinton Regional Airport

Clinton, Oklahoma, USA
METAR KCLK 190855Z AUTO 16006KT 10SM CLR 22/17 A2995 RMK AO2
Observed Flight Rules
Sep-19 @ 08:55 UTC (32 minutes ago) Visual Flight Rules
Wind Visibility Clouds
160° at 6 knots 10 miles
  • Clear skies
Temperatures Readings
Current 22°C / 72°F
Dewpoint 17°C / 63°F
Humidity 73%
Altimeter 29.95" Hg
Pressure 1014 hPa
Elevation 492
METAR KCLK 190855Z AUTO 16006KT 10SM CLR 22/17 A2995 RMK AO2
Observed Flight Rules
Sep-19 @ 08:55 UTC
(32 minutes ago)
VFR
Wind Visibility
160° at 6 knots 10 miles
Clouds
  • Clear skies
Temperature Dewpoint
22°C / 72°F 17°C / 63°F
Humidity Altimeter Pressure
73% 29.95" Hg 1014 hPa